createdAt,value
2017-08-11T00:01:10.244Z,122.30
2017-08-11T00:03:36.844Z,124.70
2017-08-11T00:06:03.459Z,115.00
2017-08-11T00:08:30.194Z,129.10
2017-08-11T00:10:56.858Z,124.47
2017-08-11T00:13:23.465Z,123.17
2017-08-11T00:15:50.074Z,114.23
2017-08-11T00:18:16.672Z,120.60
2017-08-11T00:20:43.267Z,90.03
2017-08-11T00:23:10.047Z,84.73
2017-08-11T00:25:36.643Z,76.83
2017-08-11T00:28:03.248Z,90.00
2017-08-11T00:30:30.103Z,82.80
2017-08-11T00:32:56.764Z,83.13
2017-08-11T00:35:23.441Z,94.70
2017-08-11T00:37:50.195Z,89.93
2017-08-11T00:40:16.795Z,91.87
2017-08-11T00:42:43.391Z,84.03
2017-08-11T00:45:10.040Z,81.07
2017-08-11T00:47:36.631Z,76.90
2017-08-11T00:50:03.303Z,101.50
2017-08-11T00:52:30.338Z,89.53
2017-08-11T00:54:57.484Z,99.50
2017-08-11T00:57:24.063Z,95.70
2017-08-11T00:59:50.683Z,97.80
2017-08-11T01:02:17.319Z,97.40
2017-08-11T01:04:43.916Z,87.10
2017-08-11T01:07:10.751Z,96.97
2017-08-11T01:09:37.342Z,94.70
2017-08-11T01:12:03.999Z,97.23
2017-08-11T01:14:30.619Z,103.57
2017-08-11T01:16:57.224Z,101.70
2017-08-11T01:19:23.819Z,101.90
2017-08-11T01:21:50.443Z,105.40
2017-08-11T01:24:17.030Z,88.40
2017-08-11T01:26:43.627Z,86.87
2017-08-11T01:29:10.273Z,102.20
2017-08-11T01:31:36.935Z,115.00
2017-08-11T01:34:03.540Z,100.23
2017-08-11T01:36:30.416Z,105.57
2017-08-11T01:38:57.015Z,99.67
2017-08-11T01:41:23.617Z,113.40
2017-08-11T01:43:50.375Z,104.53
2017-08-11T01:46:17.002Z,112.00
2017-08-11T01:48:43.602Z,111.57
2017-08-11T01:51:10.451Z,113.50
2017-08-11T01:53:37.048Z,118.10
2017-08-11T01:56:03.666Z,112.53
2017-08-11T01:58:30.490Z,110.30
2017-08-11T02:00:57.103Z,105.40
2017-08-11T02:03:23.699Z,112.87
2017-08-11T02:05:50.695Z,113.27
2017-08-11T02:08:17.301Z,110.93
2017-08-11T02:10:43.895Z,120.70
2017-08-11T02:13:10.767Z,127.83
2017-08-11T02:15:37.365Z,132.43
2017-08-11T02:18:03.974Z,132.93
2017-08-11T02:20:30.586Z,137.70
2017-08-11T02:22:57.331Z,136.17
2017-08-11T02:25:23.940Z,130.73
2017-08-11T02:27:50.920Z,127.33
2017-08-11T02:30:17.547Z,120.10
2017-08-11T02:32:44.143Z,113.60
2017-08-11T02:35:11.027Z,128.50
2017-08-11T02:37:37.627Z,122.43
2017-08-11T02:40:04.256Z,122.97
2017-08-11T02:42:31.268Z,116.53
2017-08-11T02:44:57.905Z,105.90
2017-08-11T02:47:24.500Z,101.00
2017-08-11T02:49:51.216Z,103.30
2017-08-11T02:52:17.805Z,99.63
2017-08-11T02:54:44.404Z,100.93
2017-08-11T02:57:11.400Z,106.77
2017-08-11T02:59:38.024Z,92.73
2017-08-11T03:02:04.663Z,100.07
2017-08-11T03:04:31.654Z,91.57
2017-08-11T03:06:58.248Z,90.40
2017-08-11T03:09:24.886Z,85.47
2017-08-11T03:11:51.530Z,98.90
2017-08-11T03:14:18.118Z,89.83
2017-08-11T03:16:44.711Z,81.87
2017-08-11T03:19:11.518Z,99.90
2017-08-11T03:21:38.108Z,85.37
2017-08-11T03:24:04.749Z,87.07
2017-08-11T03:26:31.467Z,98.70
2017-08-11T03:28:58.087Z,90.60
2017-08-11T03:31:24.696Z,101.83
2017-08-11T03:33:51.458Z,102.60
2017-08-11T03:36:18.047Z,96.83
2017-08-11T03:38:44.702Z,91.37
2017-08-11T03:41:11.470Z,106.03
2017-08-11T03:43:38.067Z,106.87
2017-08-11T03:46:04.683Z,100.43
2017-08-11T03:48:31.391Z,93.33
2017-08-11T03:50:57.989Z,96.67
2017-08-11T03:53:24.603Z,109.07
2017-08-11T03:55:51.483Z,90.97
2017-08-11T03:58:18.075Z,87.77
2017-08-11T04:00:44.675Z,91.67
2017-08-11T04:03:11.530Z,96.10
2017-08-11T04:05:38.122Z,82.87
2017-08-11T04:08:04.723Z,91.23
2017-08-11T04:10:31.723Z,91.43
2017-08-11T04:12:58.319Z,88.57
2017-08-11T04:15:24.922Z,104.80
2017-08-11T04:17:51.703Z,93.40
2017-08-11T04:20:18.573Z,96.13
2017-08-11T04:22:45.167Z,88.60
2017-08-11T04:25:11.920Z,100.77
2017-08-11T04:27:38.507Z,94.03
2017-08-11T04:30:05.108Z,108.33
2017-08-11T04:32:32.235Z,100.07
2017-08-11T04:34:58.856Z,109.00
2017-08-11T04:37:25.592Z,111.00
2017-08-11T04:39:52.235Z,100.23
2017-08-11T04:42:18.830Z,114.30
2017-08-11T04:44:45.428Z,102.27
2017-08-11T04:47:12.146Z,106.37
2017-08-11T04:49:38.745Z,99.17
2017-08-11T04:52:05.340Z,102.37
2017-08-11T04:54:32.350Z,107.07
2017-08-11T04:56:58.962Z,105.13
2017-08-11T04:59:25.568Z,107.40
2017-08-11T05:01:52.515Z,98.30
2017-08-11T05:04:19.125Z,102.97
2017-08-11T05:06:45.719Z,101.27
2017-08-11T05:09:12.480Z,97.90
2017-08-11T05:11:39.131Z,98.67
2017-08-11T05:14:05.703Z,97.83
2017-08-11T05:16:32.508Z,89.60
2017-08-11T05:18:59.124Z,109.10
2017-08-11T05:21:25.767Z,106.10
2017-08-11T05:23:52.399Z,94.00
2017-08-11T05:26:18.995Z,95.10
2017-08-11T05:28:45.630Z,111.40
2017-08-11T05:31:12.545Z,106.30
2017-08-11T05:33:39.163Z,106.37
2017-08-11T05:36:05.759Z,100.57
2017-08-11T05:38:32.771Z,95.73
2017-08-11T05:40:59.602Z,94.13
2017-08-11T05:43:26.347Z,90.67
2017-08-11T05:45:53.111Z,94.83
2017-08-11T05:48:19.703Z,92.53
2017-08-11T05:50:46.296Z,92.53
2017-08-11T05:53:12.959Z,90.67
2017-08-11T05:55:39.579Z,95.90
2017-08-11T05:58:06.327Z,91.20
2017-08-11T06:00:33.107Z,83.13
2017-08-11T06:02:59.717Z,93.60
2017-08-11T06:05:26.327Z,91.07
2017-08-11T06:07:53.043Z,94.70
2017-08-11T06:10:19.635Z,83.03
2017-08-11T06:12:46.249Z,97.37
2017-08-11T06:15:12.879Z,81.87
2017-08-11T06:17:39.471Z,86.07
2017-08-11T06:20:06.063Z,86.40
2017-08-11T06:22:32.900Z,78.90
2017-08-11T06:24:59.498Z,74.20
2017-08-11T06:27:26.153Z,80.87
2017-08-11T06:29:53.207Z,70.03
2017-08-11T06:32:19.813Z,73.67
2017-08-11T06:34:46.407Z,71.97
2017-08-11T06:37:13.096Z,67.77
2017-08-11T06:39:39.703Z,63.77
2017-08-11T06:42:06.364Z,66.90
2017-08-11T06:44:33.299Z,73.97
2017-08-11T06:46:59.896Z,68.83
2017-08-11T06:49:26.569Z,74.87
2017-08-11T06:51:53.540Z,62.63
2017-08-11T06:54:20.132Z,60.30
2017-08-11T06:56:46.727Z,64.47
2017-08-11T06:59:13.361Z,67.40
2017-08-11T07:01:39.994Z,53.10
2017-08-11T07:04:06.642Z,62.63
2017-08-11T07:06:33.349Z,57.57
2017-08-11T07:08:59.935Z,48.70
2017-08-11T07:11:26.550Z,46.07
2017-08-11T07:13:53.255Z,40.40
2017-08-11T07:16:19.851Z,38.63
2017-08-11T07:18:46.444Z,37.60
2017-08-11T07:21:13.057Z,34.27
2017-08-11T07:23:40.700Z,39.40
2017-08-11T07:26:07.495Z,31.73
2017-08-11T07:28:34.104Z,30.90
2017-08-11T07:31:06.842Z,29.33
2017-08-11T07:33:33.436Z,25.00
2017-08-11T07:36:00.036Z,30.73
2017-08-11T07:38:34.219Z,30.43
2017-08-11T07:41:00.847Z,26.30
2017-08-11T07:43:27.455Z,26.03
2017-08-11T07:45:54.168Z,28.47
2017-08-11T07:48:20.763Z,25.60
2017-08-11T07:50:47.360Z,26.87
2017-08-11T07:53:13.985Z,36.13
2017-08-11T07:55:40.608Z,25.10
2017-08-11T07:58:13.656Z,25.27
2017-08-11T08:00:40.312Z,24.10
2017-08-11T08:03:07.112Z,23.57
2017-08-11T08:05:34.112Z,29.17
2017-08-11T08:08:00.793Z,19.27
2017-08-11T08:10:33.186Z,20.20
2017-08-11T08:12:59.788Z,20.63
2017-08-11T08:15:26.404Z,19.50
2017-08-11T08:17:53.155Z,20.43
2017-08-11T08:20:19.762Z,21.20
2017-08-11T08:22:52.592Z,22.63
2017-08-11T08:25:19.213Z,19.20
2017-08-11T08:27:45.821Z,19.47
2017-08-11T08:30:12.436Z,20.00
2017-08-11T08:32:40.134Z,20.93
2017-08-11T08:35:06.741Z,22.50
2017-08-11T08:37:33.355Z,23.37
2017-08-11T08:40:00.145Z,18.30
2017-08-11T08:42:26.767Z,20.10
2017-08-11T08:44:53.367Z,18.57
2017-08-11T08:47:20.310Z,17.00
2017-08-11T08:49:46.911Z,18.77
2017-08-11T08:52:13.503Z,16.30
2017-08-11T08:54:40.312Z,17.50
2017-08-11T08:57:06.966Z,16.50
2017-08-11T08:59:33.616Z,27.93
2017-08-11T09:02:00.227Z,21.10
2017-08-11T09:04:26.819Z,17.40
2017-08-11T09:06:53.420Z,14.73
2017-08-11T09:09:20.127Z,19.93
2017-08-11T09:11:46.738Z,16.23
2017-08-11T09:14:13.355Z,14.30
2017-08-11T09:16:40.202Z,17.37
2017-08-11T09:19:06.913Z,16.07
2017-08-11T09:21:33.511Z,19.03
2017-08-11T09:24:00.399Z,17.43
2017-08-11T09:26:32.918Z,15.07
2017-08-11T09:29:05.613Z,22.00
2017-08-11T09:31:38.504Z,16.87
2017-08-11T09:34:11.370Z,18.73
2017-08-11T09:36:37.997Z,20.73
2017-08-11T09:39:04.630Z,16.43
2017-08-11T09:41:31.535Z,17.67
2017-08-11T09:43:58.127Z,17.20
2017-08-11T09:46:24.744Z,24.23
2017-08-11T09:48:51.694Z,16.13
2017-08-11T09:51:18.283Z,17.53
2017-08-11T09:53:44.884Z,20.80
2017-08-11T09:56:11.592Z,18.10
2017-08-11T09:58:38.201Z,20.37
2017-08-11T10:01:04.795Z,17.80
2017-08-11T10:03:31.506Z,22.43
2017-08-11T10:05:58.112Z,20.43
2017-08-11T10:08:24.691Z,21.47
2017-08-11T10:10:51.608Z,22.60
2017-08-11T10:13:18.203Z,25.67
2017-08-11T10:15:44.790Z,19.90
2017-08-11T10:18:11.408Z,21.23
2017-08-11T10:20:38.383Z,20.93
2017-08-11T10:23:05.035Z,21.93
2017-08-11T10:25:31.827Z,21.63
2017-08-11T10:27:58.423Z,21.30
2017-08-11T10:30:25.023Z,25.63
2017-08-11T10:32:51.888Z,21.10
2017-08-11T10:35:18.482Z,22.63
2017-08-11T10:37:45.075Z,22.30
2017-08-11T10:40:11.864Z,26.90
2017-08-11T10:42:38.488Z,28.77
2017-08-11T10:45:05.114Z,23.40
2017-08-11T10:47:31.723Z,24.77
2017-08-11T10:49:58.337Z,28.00
2017-08-11T10:52:24.927Z,27.53
2017-08-11T10:54:51.698Z,25.10
2017-08-11T10:57:18.295Z,27.17
2017-08-11T10:59:44.891Z,30.13
2017-08-11T11:02:11.532Z,24.80
2017-08-11T11:04:38.231Z,25.30
2017-08-11T11:07:04.862Z,30.10
2017-08-11T11:09:31.507Z,27.20
2017-08-11T11:11:58.099Z,33.63
2017-08-11T11:14:24.692Z,30.87
2017-08-11T11:16:52.298Z,33.73
2017-08-11T11:19:18.916Z,29.60
2017-08-11T11:21:45.515Z,30.03
2017-08-11T11:24:12.282Z,30.80
2017-08-11T11:26:39.254Z,36.60
2017-08-11T11:29:05.893Z,29.20
2017-08-11T11:31:40.212Z,30.50
2017-08-11T11:34:07.682Z,30.10
2017-08-11T11:36:34.391Z,33.20
2017-08-11T11:39:01.243Z,26.87
2017-08-11T11:41:27.846Z,32.37
2017-08-11T11:43:54.451Z,29.23
2017-08-11T11:46:21.095Z,41.80
2017-08-11T11:48:47.686Z,30.23
2017-08-11T11:51:14.287Z,34.03
2017-08-11T11:53:40.995Z,36.10
2017-08-11T11:56:07.603Z,40.30
2017-08-11T11:58:34.196Z,38.00
2017-08-11T12:01:00.798Z,33.87
2017-08-11T12:03:27.400Z,36.77
2017-08-11T12:05:53.988Z,41.10
2017-08-11T12:08:20.760Z,33.57
2017-08-11T12:10:47.351Z,32.00
2017-08-11T12:13:13.976Z,33.30
2017-08-11T12:15:40.601Z,34.43
2017-08-11T12:18:07.234Z,32.63
2017-08-11T12:20:33.818Z,31.70
2017-08-11T12:23:00.529Z,36.23
2017-08-11T12:25:27.221Z,32.10
2017-08-11T12:27:53.847Z,31.60
2017-08-11T12:30:20.576Z,32.80
2017-08-11T12:32:47.254Z,30.57
2017-08-11T12:35:13.916Z,32.07
2017-08-11T12:37:40.704Z,30.20
2017-08-11T12:40:07.452Z,35.93
2017-08-11T12:42:34.051Z,30.53
2017-08-11T12:45:00.813Z,34.70
2017-08-11T12:47:27.417Z,32.10
2017-08-11T12:49:54.111Z,32.17
2017-08-11T12:52:20.757Z,34.67
2017-08-11T12:54:47.359Z,35.60
2017-08-11T12:57:13.971Z,36.03
2017-08-11T12:59:40.653Z,34.97
2017-08-11T13:02:07.690Z,33.43
2017-08-11T13:04:34.295Z,40.40
2017-08-11T13:07:06.901Z,38.83
2017-08-11T13:09:33.508Z,34.27
2017-08-11T13:12:00.108Z,36.33
2017-08-11T13:14:26.716Z,38.57
2017-08-11T13:16:53.308Z,40.43
2017-08-11T13:19:19.980Z,37.93
2017-08-11T13:21:46.619Z,38.53
2017-08-11T13:24:13.269Z,34.53
2017-08-11T13:26:40.024Z,40.17
2017-08-11T13:29:06.886Z,32.07
2017-08-11T13:31:33.483Z,39.10
2017-08-11T13:34:00.075Z,39.47
2017-08-11T13:36:26.783Z,33.00
2017-08-11T13:38:53.377Z,34.07
2017-08-11T13:41:19.970Z,38.43
2017-08-11T13:43:46.607Z,33.90
2017-08-11T13:46:13.217Z,39.67
2017-08-11T13:48:43.532Z,33.80
2017-08-11T13:51:10.183Z,36.57
2017-08-11T13:53:36.797Z,33.80
2017-08-11T13:56:03.390Z,36.50
2017-08-11T13:58:30.192Z,38.00
2017-08-11T14:00:56.795Z,36.63
2017-08-11T14:03:23.418Z,34.67
2017-08-11T14:05:50.181Z,32.10
2017-08-11T14:08:16.836Z,29.33
2017-08-11T14:10:43.426Z,31.97
2017-08-11T14:13:10.202Z,35.60
2017-08-11T14:15:36.811Z,29.43
2017-08-11T14:18:03.479Z,27.90
2017-08-11T14:20:30.399Z,39.80
2017-08-11T14:22:58.296Z,32.00
2017-08-11T14:25:24.932Z,32.93
2017-08-11T14:27:51.832Z,28.43
2017-08-11T14:30:18.423Z,26.40
2017-08-11T14:32:45.020Z,28.53
2017-08-11T14:35:11.629Z,27.87
2017-08-11T14:37:38.253Z,30.03
2017-08-11T14:40:04.887Z,35.10
2017-08-11T14:42:31.948Z,45.40
2017-08-11T14:44:58.566Z,38.13
2017-08-11T14:47:25.163Z,41.80
2017-08-11T14:49:52.011Z,36.80
2017-08-11T14:52:18.631Z,34.90
2017-08-11T14:54:45.224Z,33.43
2017-08-11T14:57:11.900Z,29.70
2017-08-11T14:59:38.520Z,38.60
2017-08-11T15:02:05.120Z,34.70
2017-08-11T15:04:32.017Z,28.70
2017-08-11T15:06:58.640Z,30.93
2017-08-11T15:09:25.222Z,38.07
2017-08-11T15:11:51.933Z,32.67
2017-08-11T15:14:18.527Z,35.13
2017-08-11T15:16:45.126Z,31.97
2017-08-11T15:19:11.786Z,27.07
2017-08-11T15:21:38.389Z,32.50
2017-08-11T15:24:04.993Z,31.10
2017-08-11T15:26:31.783Z,30.07
2017-08-11T15:28:58.391Z,27.03
2017-08-11T15:31:25.000Z,35.70
2017-08-11T15:33:51.823Z,26.17
2017-08-11T15:36:18.491Z,29.83
2017-08-11T15:38:45.086Z,25.33
2017-08-11T15:41:11.899Z,33.83
2017-08-11T15:43:44.430Z,26.33
2017-08-11T15:46:11.044Z,30.40
2017-08-11T15:48:37.770Z,30.37
2017-08-11T15:51:14.919Z,28.43
2017-08-11T15:53:41.519Z,30.30
2017-08-11T15:56:08.136Z,34.40
2017-08-11T15:58:35.045Z,28.10
2017-08-11T16:01:02.461Z,29.47
2017-08-11T16:03:29.064Z,31.10
2017-08-11T16:05:55.835Z,31.77
2017-08-11T16:08:22.447Z,32.77
2017-08-11T16:10:49.051Z,25.43
2017-08-11T16:13:15.775Z,36.80
2017-08-11T16:15:42.395Z,34.60
2017-08-11T16:18:09.015Z,32.33
2017-08-11T16:20:35.633Z,33.03
2017-08-11T16:23:02.222Z,34.73
2017-08-11T16:25:28.819Z,29.43
2017-08-11T16:27:55.540Z,33.20
2017-08-11T16:30:22.130Z,36.20
2017-08-11T16:32:48.728Z,34.30
2017-08-11T16:35:15.368Z,37.60
2017-08-11T16:37:45.588Z,32.30
2017-08-11T16:40:12.202Z,33.40
2017-08-11T16:42:38.809Z,31.80
2017-08-11T16:45:05.492Z,35.20
2017-08-11T16:47:40.464Z,40.47
2017-08-11T16:50:07.071Z,35.50
2017-08-11T16:52:33.719Z,35.10
2017-08-11T16:55:00.338Z,37.90
2017-08-11T16:57:26.935Z,35.47
2017-08-11T16:59:53.552Z,34.23
2017-08-11T17:02:20.178Z,39.33
2017-08-11T17:04:46.779Z,32.17
2017-08-11T17:07:13.400Z,36.03
2017-08-11T17:09:43.426Z,37.90
2017-08-11T17:12:10.046Z,29.33
2017-08-11T17:14:36.774Z,29.67
2017-08-11T17:17:03.363Z,32.57
2017-08-11T17:19:31.250Z,29.30
2017-08-11T17:21:58.692Z,30.90
2017-08-11T17:24:31.265Z,32.73
2017-08-11T17:26:57.872Z,26.27
2017-08-11T17:29:24.467Z,32.73
2017-08-11T17:31:51.068Z,35.13
2017-08-11T17:34:17.676Z,31.80
2017-08-11T17:36:44.284Z,37.53
2017-08-11T17:39:10.894Z,32.27
2017-08-11T17:41:38.470Z,33.00
2017-08-11T17:44:05.172Z,32.47
2017-08-11T17:46:31.790Z,35.73
2017-08-11T17:49:02.799Z,35.57
2017-08-11T17:51:30.624Z,33.40
2017-08-11T17:53:57.255Z,40.77
2017-08-11T17:56:23.875Z,36.63
2017-08-11T17:58:51.731Z,39.60
2017-08-11T18:01:24.295Z,32.03
2017-08-11T18:03:50.918Z,34.40
2017-08-11T18:06:23.612Z,33.70
2017-08-11T18:08:53.612Z,38.83
2017-08-11T18:11:20.232Z,36.03
2017-08-11T18:13:47.081Z,35.60
2017-08-11T18:16:13.726Z,36.87
2017-08-11T18:18:40.548Z,36.73
2017-08-11T18:21:07.184Z,34.10
2017-08-11T18:23:44.145Z,36.67
2017-08-11T18:26:10.868Z,40.33
2017-08-11T18:28:37.905Z,40.30
2017-08-11T18:31:04.622Z,37.80
2017-08-11T18:33:31.219Z,37.47
2017-08-11T18:35:57.827Z,29.57
2017-08-11T18:38:24.456Z,37.93
2017-08-11T18:40:51.048Z,36.50
2017-08-11T18:43:17.804Z,41.47
2017-08-11T18:45:44.404Z,33.37
2017-08-11T18:53:40.395Z,41.67
2017-08-11T18:56:07.088Z,34.80
2017-08-11T18:58:33.746Z,31.60
2017-08-11T19:01:00.317Z,41.33
2017-08-11T19:03:26.913Z,38.57
2017-08-11T19:05:53.541Z,38.30
2017-08-11T19:08:20.277Z,35.70
2017-08-11T19:10:52.957Z,36.17
2017-08-11T19:13:19.586Z,33.23
2017-08-11T19:15:52.899Z,36.50
2017-08-11T19:18:19.494Z,36.30
2017-08-11T19:20:52.997Z,40.43
2017-08-11T19:23:25.573Z,35.90
2017-08-11T19:25:52.173Z,34.40
2017-08-11T19:28:18.770Z,38.77
2017-08-11T19:30:45.570Z,33.90
2017-08-11T19:33:12.157Z,35.80
2017-08-11T19:38:22.753Z,39.17
2017-08-11T19:40:49.358Z,45.40
2017-08-11T19:43:15.955Z,42.97
2017-08-11T19:45:50.419Z,37.83
2017-08-11T19:48:17.014Z,36.80
2017-08-11T19:50:50.554Z,34.60
2017-08-11T19:53:17.144Z,40.97
2017-08-11T19:55:50.506Z,34.90
2017-08-11T19:58:17.101Z,37.37
2017-08-11T20:00:43.722Z,39.60
2017-08-11T20:03:10.386Z,38.10
2017-08-11T20:05:36.981Z,34.93
2017-08-11T20:08:03.575Z,38.53
2017-08-11T20:10:30.245Z,43.93
2017-08-11T20:12:57.010Z,40.80
2017-08-11T20:15:23.630Z,39.00
2017-08-11T20:17:50.219Z,40.40
2017-08-11T20:20:16.851Z,41.43
2017-08-11T20:22:43.443Z,40.30
2017-08-11T20:25:10.059Z,39.80
2017-08-11T20:27:36.670Z,39.33
2017-08-11T20:30:03.267Z,43.40
2017-08-11T20:32:29.886Z,41.53
2017-08-11T20:34:56.517Z,38.60
2017-08-11T20:37:23.123Z,40.57
2017-08-11T20:39:49.707Z,36.03
2017-08-11T20:42:16.302Z,41.47
2017-08-11T20:44:42.891Z,37.27
2017-08-11T20:47:09.511Z,37.90
2017-08-11T20:49:36.114Z,35.73
2017-08-11T20:52:02.714Z,40.83
2017-08-11T20:54:29.322Z,38.33
2017-08-11T20:56:55.916Z,41.93
2017-08-11T20:59:22.521Z,43.80
2017-08-11T21:01:49.110Z,38.67
2017-08-11T21:04:15.717Z,39.90
2017-08-11T21:06:42.351Z,40.50
2017-08-11T21:09:09.000Z,42.90
2017-08-11T21:11:35.879Z,42.20
2017-08-11T21:14:02.466Z,34.87
2017-08-11T21:16:29.065Z,39.80
2017-08-11T21:18:55.661Z,33.90
2017-08-11T21:21:22.270Z,41.43
2017-08-11T21:23:48.862Z,38.20
2017-08-11T21:26:15.482Z,42.20
2017-08-11T21:28:42.086Z,39.93
2017-08-11T21:31:08.703Z,39.23
2017-08-11T21:33:35.285Z,41.87
2017-08-11T21:36:01.878Z,40.63
2017-08-11T21:38:28.473Z,37.70
2017-08-11T21:40:55.103Z,39.90
2017-08-11T21:43:21.691Z,38.50
2017-08-11T21:45:48.279Z,40.53
2017-08-11T21:48:14.882Z,44.47
2017-08-11T21:50:41.516Z,42.10
2017-08-11T21:53:08.108Z,43.50
2017-08-11T21:55:34.694Z,41.70
2017-08-11T21:58:01.297Z,38.90
2017-08-11T22:00:27.918Z,52.30
2017-08-11T22:02:54.525Z,60.40
2017-08-11T22:05:21.122Z,53.83
2017-08-11T22:07:47.706Z,52.40
2017-08-11T22:10:14.319Z,48.47
2017-08-11T22:12:40.929Z,43.50
2017-08-11T22:15:07.520Z,39.30
2017-08-11T22:17:34.118Z,36.93
2017-08-11T22:20:00.710Z,40.63
2017-08-11T22:22:27.333Z,40.23
2017-08-11T22:24:53.897Z,41.27
2017-08-11T22:27:20.505Z,34.10
2017-08-11T22:29:47.107Z,37.10
2017-08-11T22:32:13.701Z,32.93
2017-08-11T22:34:40.339Z,30.90
2017-08-11T22:37:06.946Z,33.47
2017-08-11T22:39:33.567Z,36.83
2017-08-11T22:42:00.158Z,29.40
2017-08-11T22:44:26.765Z,34.60
2017-08-11T22:46:53.353Z,27.37
2017-08-11T22:49:19.946Z,30.70
2017-08-11T22:51:46.546Z,32.90
2017-08-11T22:54:13.155Z,33.43
2017-08-11T22:56:39.866Z,31.70
2017-08-11T22:59:06.483Z,31.10
2017-08-11T23:01:33.090Z,29.40
2017-08-11T23:03:59.689Z,33.87
2017-08-11T23:06:26.292Z,33.07
2017-08-11T23:08:52.937Z,32.17
2017-08-11T23:11:19.642Z,33.07
2017-08-11T23:13:46.238Z,35.77
2017-08-11T23:16:12.835Z,40.07
2017-08-11T23:18:39.466Z,35.83
2017-08-11T23:21:06.063Z,31.70
2017-08-11T23:23:32.651Z,34.40
2017-08-11T23:25:59.246Z,34.40
2017-08-11T23:28:25.898Z,36.30
2017-08-11T23:30:52.598Z,36.87
2017-08-11T23:33:19.189Z,36.23
2017-08-11T23:35:45.783Z,35.77
2017-08-11T23:38:12.387Z,36.23
2017-08-11T23:40:39.008Z,33.20
2017-08-11T23:43:05.644Z,31.23
2017-08-11T23:45:32.250Z,32.00
2017-08-11T23:47:58.860Z,30.20
2017-08-11T23:50:25.470Z,26.37
2017-08-11T23:52:52.081Z,28.77
2017-08-11T23:55:18.669Z,29.70
2017-08-11T23:57:45.260Z,34.67
